Weather reports worldwide

Advertisment
Mannheim City Airport, Germany (10730): temperature & dewpoint: 12.10.2018 03:00:00 - 18.10.2018 03:00:00 (CEST)Mannheim City Airport, Germany (10730): wind speed: 12.10.2018 03:00:00 - 18.10.2018 03:00:00 (CEST)Mannheim City Airport, Germany (10730): wind direction: 12.10.2018 03:00:00 - 18.10.2018 03:00:00 (CEST)Mannheim City Airport, Germany (10730): visibility: 12.10.2018 03:00:00 - 18.10.2018 03:00:00 (CEST)
Date & Time tt [°C] td [°C] ff [km/h] ff [kn] dd vv [km]
18.10.2018 03:00:00 - - - - - -
18.10.2018 02:00:00 - - - - - -
18.10.2018 01:00:00 - - - - - -
18.10.2018 00:00:00 - - - - - -
17.10.2018 23:00:00 - - - - - -
17.10.2018 22:00:00 - - - - - -
17.10.2018 21:00:00 16,0 11,0 2 1 - 10
17.10.2018 20:00:00 16,0 11,0 0 0 N 10
17.10.2018 19:00:00 19,0 11,0 5 3 N 10
17.10.2018 18:00:00 21,0 11,0 5 3 NNW 10
17.10.2018 17:00:00 22,0 11,0 8 4 NNW 10
17.10.2018 16:00:00 22,0 11,0 9 5 NNW 10
17.10.2018 15:00:00 21,0 11,0 5 3 - 9
17.10.2018 14:00:00 21,0 11,0 4 2 - 9
17.10.2018 13:00:00 19,0 11,0 5 3 - 10
17.10.2018 12:00:00 18,0 11,0 2 1 - 10
17.10.2018 11:00:00 16,0 11,0 2 1 - 7
17.10.2018 10:00:00 14,0 11,0 0 0 N 7
17.10.2018 09:00:00 10,0 9,0 4 2 - 10
17.10.2018 08:00:00 9,0 8,0 0 0 N 10
17.10.2018 07:00:00 9,0 9,0 2 1 - 10
17.10.2018 06:00:00 9,0 7,0 2 1 NE 10
17.10.2018 05:00:00 - - - - - -
17.10.2018 04:00:00 - - - - - -
17.10.2018 03:00:00 - - - - - -
17.10.2018 02:00:00 - - - - - -
17.10.2018 01:00:00 - - - - - -
17.10.2018 00:00:00 - - - - - -
16.10.2018 23:00:00 - - - - - -
16.10.2018 22:00:00 - - - - - -
16.10.2018 21:00:00 15,0 10,0 0 0 N 10
16.10.2018 20:00:00 17,0 10,0 0 0 N 10
16.10.2018 19:00:00 20,0 10,0 0 0 N 10
16.10.2018 18:00:00 23,0 11,0 8 4 SW 10
16.10.2018 17:00:00 25,0 10,0 4 2 - 10
16.10.2018 16:00:00 24,0 10,0 5 3 - 10
16.10.2018 15:00:00 23,0 10,0 4 2 - 10
16.10.2018 14:00:00 21,0 11,0 5 3 - 10
16.10.2018 13:00:00 20,0 11,0 4 2 - 10
16.10.2018 12:00:00 17,0 10,0 2 1 - 10
16.10.2018 11:00:00 15,0 10,0 2 1 - 10
16.10.2018 10:00:00 13,0 10,0 2 1 - 10
16.10.2018 09:00:00 10,0 9,0 5 3 NW 10
16.10.2018 08:00:00 7,0 6,0 2 1 - 10
16.10.2018 07:00:00 8,0 7,0 0 0 N 10
16.10.2018 06:00:00 9,0 9,0 2 1 - 10
16.10.2018 05:00:00 - - - - - -
16.10.2018 04:00:00 - - - - - -
16.10.2018 03:00:00 - - - - - -
16.10.2018 02:00:00 - - - - - -
16.10.2018 01:00:00 - - - - - -
16.10.2018 00:00:00 - - - - - -
15.10.2018 23:00:00 - - - - - -
15.10.2018 22:00:00 - - - - - -
15.10.2018 21:00:00 - - - - - -
15.10.2018 20:00:00 18,0 9,0 8 4 N 10
15.10.2018 19:00:00 22,0 9,0 9 5 NNE 10
15.10.2018 18:00:00 24,0 9,0 9 5 NNE 10
15.10.2018 17:00:00 25,0 9,0 5 3 - 10
15.10.2018 16:00:00 24,0 10,0 8 4 N 10
15.10.2018 15:00:00 23,0 11,0 5 3 - 10
15.10.2018 14:00:00 22,0 10,0 5 3 - 10
15.10.2018 13:00:00 20,0 11,0 9 5 NW 10
15.10.2018 12:00:00 18,0 11,0 5 3 - 10
15.10.2018 11:00:00 16,0 11,0 2 1 - 10
15.10.2018 10:00:00 14,0 10,0 4 2 - 10
15.10.2018 09:00:00 12,0 10,0 2 1 WSW 10
15.10.2018 08:00:00 10,0 9,0 2 1 NNE 10
15.10.2018 07:00:00 9,0 8,0 4 2 E 10
15.10.2018 06:00:00 10,0 9,0 0 0 N 10
15.10.2018 05:00:00 - - - - - -
15.10.2018 04:00:00 - - - - - -
15.10.2018 03:00:00 - - - - - -
15.10.2018 02:00:00 - - - - - -
15.10.2018 01:00:00 - - - - - -
15.10.2018 00:00:00 - - - - - -
14.10.2018 23:00:00 - - - - - -
14.10.2018 22:00:00 - - - - - -
14.10.2018 21:00:00 - - - - - -
14.10.2018 20:00:00 18,0 7,0 0 0 N 10
14.10.2018 19:00:00 23,0 6,0 4 2 ESE 10
14.10.2018 18:00:00 26,0 6,0 11 6 SE 10
14.10.2018 17:00:00 27,0 8,0 11 6 SE 10
14.10.2018 16:00:00 27,0 9,0 11 6 SE 10
14.10.2018 15:00:00 26,0 10,0 8 4 ESE 10
14.10.2018 14:00:00 25,0 11,0 5 3 - 10
14.10.2018 13:00:00 24,0 12,0 4 2 - 10
14.10.2018 12:00:00 21,0 11,0 5 3 - 10
14.10.2018 11:00:00 18,0 10,0 4 2 - 10
14.10.2018 10:00:00 15,0 10,0 2 1 - 10
14.10.2018 09:00:00 12,0 10,0 0 0 N 10
14.10.2018 08:00:00 9,0 7,0 0 0 N 10
14.10.2018 07:00:00 - - - - - -
14.10.2018 06:00:00 - - - - - -
14.10.2018 05:00:00 - - - - - -
14.10.2018 04:00:00 - - - - - -
14.10.2018 03:00:00 - - - - - -
14.10.2018 02:00:00 - - - - - -
14.10.2018 01:00:00 - - - - - -
14.10.2018 00:00:00 - - - - - -
13.10.2018 23:00:00 - - - - - -
13.10.2018 22:00:00 - - - - - -
13.10.2018 21:00:00 - - - - - -
13.10.2018 20:00:00 19,0 10,0 0 0 N 10
13.10.2018 19:00:00 23,0 10,0 4 2 - 10
13.10.2018 18:00:00 27,0 9,0 8 4 ESE 10
13.10.2018 17:00:00 27,0 10,0 4 2 - 10
13.10.2018 16:00:00 27,0 10,0 5 3 - 10
13.10.2018 15:00:00 26,0 10,0 5 3 - 10
13.10.2018 14:00:00 25,0 12,0 4 2 - 10
13.10.2018 13:00:00 23,0 13,0 4 2 - 10
13.10.2018 12:00:00 21,0 13,0 4 2 - 10
13.10.2018 11:00:00 19,0 13,0 2 1 - 10
13.10.2018 10:00:00 17,0 12,0 4 2 - 10
13.10.2018 09:00:00 14,0 12,0 0 0 N 10
13.10.2018 08:00:00 11,0 9,0 4 2 NW 10
13.10.2018 07:00:00 - - - - - -
13.10.2018 06:00:00 - - - - - -
13.10.2018 05:00:00 - - - - - -
13.10.2018 04:00:00 - - - - - -
13.10.2018 03:00:00 - - - - - -
13.10.2018 02:00:00 - - - - - -
13.10.2018 01:00:00 - - - - - -
13.10.2018 00:00:00 15,0 12,0 0 0 N 10
12.10.2018 23:00:00 - - - - - -
12.10.2018 22:00:00 - - - - - -
12.10.2018 21:00:00 18,0 12,0 0 0 N 10
12.10.2018 20:00:00 20,0 12,0 0 0 N 10
12.10.2018 19:00:00 24,0 12,0 4 2 ESE 10
12.10.2018 18:00:00 26,0 11,0 8 4 S 10
12.10.2018 17:00:00 27,0 11,0 11 6 S 10
12.10.2018 16:00:00 26,0 12,0 11 6 S 10
12.10.2018 15:00:00 26,0 12,0 11 6 S 10
12.10.2018 14:00:00 25,0 13,0 9 5 - 10
12.10.2018 13:00:00 23,0 13,0 9 5 SSW 10
12.10.2018 12:00:00 22,0 12,0 9 5 SSE 10
12.10.2018 11:00:00 20,0 13,0 11 6 S 10
12.10.2018 10:00:00 18,0 13,0 9 5 SSE 10
12.10.2018 09:00:00 16,0 12,0 8 4 S 10
12.10.2018 08:00:00 15,0 13,0 8 4 SSE 10
12.10.2018 07:00:00 15,0 13,0 9 5 SSE 10
12.10.2018 06:00:00 14,0 13,0 5 3 - 10
12.10.2018 05:00:00 - - - - - -
12.10.2018 04:00:00 - - - - - -
12.10.2018 03:00:00 - - - - - -

tt = temperature
td = dewpoint
ff = wind speed
dd = wind direction
vv = visibility

Next stations